createdAt,value
2018-12-08T00:00:14.062Z,100183.89
2018-12-08T00:02:44.083Z,100188.80
2018-12-08T00:05:13.948Z,100178.77
2018-12-08T00:07:44.125Z,100199.55
2018-12-08T00:10:13.977Z,100181.12
2018-12-08T00:12:43.662Z,100201.54
2018-12-08T00:15:13.451Z,100214.38
2018-12-08T00:17:43.471Z,100191.41
2018-12-08T00:20:16.311Z,100194.47
2018-12-08T00:22:46.287Z,100200.27
2018-12-08T00:25:16.520Z,100207.34
2018-12-08T00:27:46.192Z,100208.27
2018-12-08T00:30:52.569Z,100219.58
2018-12-08T00:33:25.267Z,100225.42
2018-12-08T00:35:55.829Z,100228.01
2018-12-08T00:38:25.620Z,100238.44
2018-12-08T00:40:55.661Z,100239.79
2018-12-08T00:43:25.433Z,100232.28
2018-12-08T00:45:55.039Z,100236.69
2018-12-08T00:48:25.147Z,100247.66
2018-12-08T00:50:54.972Z,100241.45
2018-12-08T00:53:24.728Z,100236.75
2018-12-08T00:55:54.799Z,100231.59
2018-12-08T00:58:24.711Z,100232.69
2018-12-08T01:00:54.283Z,100238.88
2018-12-08T01:03:23.941Z,100243.90
2018-12-08T01:05:53.880Z,100243.97
2018-12-08T01:08:23.895Z,100245.71
2018-12-08T01:10:54.311Z,100245.25
2018-12-08T01:13:24.822Z,100250.98
2018-12-08T01:15:54.889Z,100249.80
2018-12-08T01:18:25.261Z,100251.11
2018-12-08T01:20:56.154Z,100256.34
2018-12-08T01:23:26.118Z,100247.06
2018-12-08T01:25:56.059Z,100251.37
2018-12-08T01:28:28.989Z,100264.00
2018-12-08T01:30:58.817Z,100264.78
2018-12-08T01:33:29.157Z,100262.12
2018-12-08T01:35:59.094Z,100270.47
2018-12-08T01:38:32.120Z,100269.91
2018-12-08T01:41:02.062Z,100286.86
2018-12-08T01:43:32.599Z,100270.11
2018-12-08T01:46:04.209Z,100276.08
2018-12-08T01:48:37.718Z,100273.48
2018-12-08T01:51:09.667Z,100281.34
2018-12-08T01:53:40.110Z,100259.11
2018-12-08T01:56:10.336Z,100273.02
2018-12-08T01:58:43.777Z,100276.15
2018-12-08T02:01:13.480Z,100257.50
2018-12-08T02:03:46.964Z,100289.04
2018-12-08T02:06:16.583Z,100276.25
2018-12-08T02:08:46.777Z,100271.61
2018-12-08T02:11:24.677Z,100273.84
2018-12-08T02:13:47.054Z,100268.98
2018-12-08T02:16:17.740Z,100259.02
2018-12-08T02:18:47.280Z,100256.38
2018-12-08T02:21:16.912Z,100249.25
2018-12-08T02:23:46.708Z,100251.48
2018-12-08T02:26:16.227Z,100256.62
2018-12-08T02:28:46.167Z,100260.00
2018-12-08T02:31:15.743Z,100262.27
2018-12-08T02:33:45.602Z,100276.91
2018-12-08T02:36:20.568Z,100270.72
2018-12-08T02:38:50.946Z,100263.26
2018-12-08T02:41:22.426Z,100261.61
2018-12-08T02:43:52.804Z,100260.82
2018-12-08T02:46:23.061Z,100254.12
2018-12-08T02:48:52.483Z,100240.27
2018-12-08T02:51:23.204Z,100244.61
2018-12-08T02:53:53.250Z,100234.69
2018-12-08T02:56:23.428Z,100241.75
2018-12-08T02:58:56.045Z,100246.91
2018-12-08T03:01:26.436Z,100247.73
2018-12-08T03:03:56.615Z,100249.91
2018-12-08T03:06:32.493Z,100243.20
2018-12-08T03:09:02.569Z,100259.91
2018-12-08T03:11:32.859Z,100234.48
2018-12-08T03:14:02.502Z,100247.91
2018-12-08T03:16:32.339Z,100254.67
2018-12-08T03:19:02.555Z,100234.65
2018-12-08T03:21:32.622Z,100233.73
2018-12-08T03:24:03.080Z,100238.99
2018-12-08T03:26:33.957Z,100260.92
2018-12-08T03:29:04.052Z,100230.05
2018-12-08T03:31:34.483Z,100234.70
2018-12-08T03:34:05.042Z,100248.69
2018-12-08T03:36:34.767Z,100247.63
2018-12-08T03:39:05.552Z,100242.22
2018-12-08T03:41:35.402Z,100234.23
2018-12-08T03:44:04.951Z,100238.92
2018-12-08T03:46:35.485Z,100236.30
2018-12-08T03:49:05.691Z,100246.79
2018-12-08T03:51:35.773Z,100260.73
2018-12-08T03:54:09.941Z,100238.68
2018-12-08T03:56:40.047Z,100217.38
2018-12-08T03:59:12.814Z,100218.55
2018-12-08T04:01:45.527Z,100227.41
2018-12-08T04:04:15.725Z,100250.48
2018-12-08T04:06:45.835Z,100240.73
2018-12-08T04:09:16.060Z,100226.69
2018-12-08T04:11:46.080Z,100227.50
2018-12-08T04:14:19.006Z,100239.73
2018-12-08T04:16:49.350Z,100230.52
2018-12-08T04:19:19.438Z,100223.55
2018-12-08T04:21:49.174Z,100226.42
2018-12-08T04:24:19.023Z,100225.23
2018-12-08T04:26:49.108Z,100236.94
2018-12-08T04:29:18.986Z,100232.76
2018-12-08T04:31:51.522Z,100234.76
2018-12-08T04:34:22.062Z,100247.52
2018-12-08T04:36:51.820Z,100230.87
2018-12-08T04:39:21.794Z,100233.91
2018-12-08T04:41:51.834Z,100218.58
2018-12-08T04:44:21.622Z,100207.48
2018-12-08T04:46:52.255Z,100221.59
2018-12-08T04:49:24.946Z,100214.59
2018-12-08T04:51:54.741Z,100203.39
2018-12-08T04:54:24.411Z,100208.97
2018-12-08T04:56:54.443Z,100206.45
2018-12-08T04:59:24.748Z,100218.32
2018-12-08T05:01:58.101Z,100202.69
2018-12-08T05:04:27.640Z,100189.13
2018-12-08T05:06:58.246Z,100203.14
2018-12-08T05:09:28.050Z,100201.97
2018-12-08T05:11:57.894Z,100190.13
2018-12-08T05:14:28.264Z,100210.47
2018-12-08T05:16:58.774Z,100208.87
2018-12-08T05:19:28.812Z,100199.59
2018-12-08T05:22:01.201Z,100208.62
2018-12-08T05:24:30.996Z,100205.03
2018-12-08T05:27:00.880Z,100205.46
2018-12-08T05:29:31.358Z,100208.27
2018-12-08T05:32:01.664Z,100197.14
2018-12-08T05:34:31.530Z,100194.19
2018-12-08T05:37:01.388Z,100199.23
2018-12-08T05:39:33.775Z,100184.58
2018-12-08T05:42:06.420Z,100189.02
2018-12-08T05:44:36.181Z,100189.13
2018-12-08T05:47:08.757Z,100186.43
2018-12-08T05:49:39.869Z,100183.16
2018-12-08T05:52:10.119Z,100179.02
2018-12-08T05:54:40.894Z,100180.52
2018-12-08T05:57:11.005Z,100173.87
2018-12-08T05:59:41.489Z,100184.50
2018-12-08T06:02:11.429Z,100171.23
2018-12-08T06:04:41.273Z,100176.00
2018-12-08T06:07:12.404Z,100169.45
2018-12-08T06:09:42.127Z,100157.68
2018-12-08T06:12:11.902Z,100162.09
2018-12-08T06:14:44.559Z,100154.63
2018-12-08T06:17:15.071Z,100156.37
2018-12-08T06:19:45.275Z,100157.07
2018-12-08T06:22:15.958Z,100159.63
2018-12-08T06:24:48.181Z,100156.34
2018-12-08T06:27:52.214Z,100173.39
2018-12-08T06:30:23.465Z,100169.09
2018-12-08T06:32:53.551Z,100182.39
2018-12-08T06:35:23.483Z,100167.62
2018-12-08T06:37:56.959Z,100177.69
2018-12-08T06:40:29.307Z,100173.35
2018-12-08T06:42:57.914Z,100175.02
2018-12-08T06:45:27.859Z,100168.33
2018-12-08T06:47:59.767Z,100176.62
2018-12-08T06:50:29.650Z,100175.77
2018-12-08T06:53:00.922Z,100178.86
2018-12-08T06:55:29.575Z,100177.04
2018-12-08T06:57:59.502Z,100169.69
2018-12-08T07:00:29.814Z,100165.27
2018-12-08T07:02:59.909Z,100160.92
2018-12-08T07:05:30.075Z,100170.53
2018-12-08T07:08:02.685Z,100169.22
2018-12-08T07:10:34.251Z,100169.64
2018-12-08T07:13:10.925Z,100175.97
2018-12-08T07:15:48.282Z,100170.48
2018-12-08T07:18:27.159Z,100147.97
2018-12-08T07:20:58.784Z,100172.64
2018-12-08T07:23:30.561Z,100164.58
2018-12-08T07:26:01.105Z,100167.88
2018-12-08T07:28:30.852Z,100160.52
2018-12-08T07:31:04.300Z,100179.67
2018-12-08T07:33:37.347Z,100153.03
2018-12-08T07:36:14.392Z,100161.43
2018-12-08T07:38:44.803Z,100143.96
2018-12-08T07:41:20.190Z,100149.52
2018-12-08T07:43:57.959Z,100152.05
2018-12-08T07:46:28.530Z,100125.52
2018-12-08T07:49:01.173Z,100136.05
2018-12-08T07:51:31.806Z,100132.56
2018-12-08T07:54:05.401Z,100133.06
2018-12-08T07:56:35.667Z,100126.70
2018-12-08T07:59:17.407Z,100141.81
2018-12-08T08:01:47.371Z,100124.27
2018-12-08T08:04:18.339Z,100139.36
2018-12-08T08:06:49.553Z,100108.23
2018-12-08T08:09:19.856Z,100112.08
2018-12-08T08:11:52.023Z,100102.52
2018-12-08T08:14:23.472Z,100090.64
2018-12-08T08:16:56.205Z,100112.55
2018-12-08T08:19:24.487Z,100098.22
2018-12-08T08:21:59.072Z,100101.91
2018-12-08T08:24:33.753Z,100091.06
2018-12-08T08:27:06.094Z,100084.80
2018-12-08T08:29:38.223Z,100074.53
2018-12-08T08:32:06.277Z,100086.45
2018-12-08T08:34:40.083Z,100072.20
2018-12-08T08:37:13.792Z,100072.90
2018-12-08T08:39:46.221Z,100075.41
2018-12-08T08:42:18.759Z,100075.30
2018-12-08T08:44:52.574Z,100071.84
2018-12-08T08:47:24.220Z,100064.95
2018-12-08T08:49:57.963Z,100067.48
2018-12-08T08:52:32.861Z,100060.39
2018-12-08T08:55:03.463Z,100060.05
2018-12-08T08:57:33.504Z,100057.77
2018-12-08T09:00:04.601Z,100052.45
2018-12-08T09:02:35.290Z,100061.64
2018-12-08T09:05:05.771Z,100057.91
2018-12-08T09:07:36.414Z,100054.13
2018-12-08T09:10:10.215Z,100056.12
2018-12-08T09:12:39.959Z,100059.45
2018-12-08T09:15:10.383Z,100051.02
2018-12-08T09:17:40.628Z,100059.07
2018-12-08T09:20:11.467Z,100041.08
2018-12-08T09:22:41.823Z,100067.73
2018-12-08T09:25:12.057Z,100049.28
2018-12-08T09:27:45.295Z,100054.44
2018-12-08T09:30:15.830Z,100046.99
2018-12-08T09:32:45.985Z,100056.77
2018-12-08T09:35:16.503Z,100051.80
2018-12-08T09:37:46.229Z,100043.16
2018-12-08T09:40:19.156Z,100045.88
2018-12-08T09:42:52.353Z,100040.53
2018-12-08T09:45:22.935Z,100036.70
2018-12-08T09:47:52.761Z,100044.73
2018-12-08T09:50:23.751Z,100028.58
2018-12-08T09:53:15.825Z,100026.33
2018-12-08T09:55:48.501Z,99999.29
2018-12-08T09:58:21.293Z,100021.18
2018-12-08T10:00:51.279Z,100018.30
2018-12-08T10:03:21.069Z,100017.66
2018-12-08T10:05:50.739Z,100019.86
2018-12-08T10:08:21.051Z,99946.16
2018-12-08T10:10:51.584Z,100011.48
2018-12-08T10:13:24.743Z,100012.94
2018-12-08T10:15:55.447Z,100005.96
2018-12-08T10:18:26.094Z,100007.53
2018-12-08T10:20:56.018Z,99993.58
2018-12-08T10:23:26.410Z,99994.80
2018-12-08T10:25:56.374Z,99988.20
2018-12-08T10:28:26.314Z,99995.19
2018-12-08T10:30:56.556Z,100009.61
2018-12-08T10:33:28.326Z,99984.48
2018-12-08T10:36:00.528Z,99988.77
2018-12-08T10:38:31.276Z,99970.58
2018-12-08T10:41:01.096Z,99975.39
2018-12-08T10:43:34.082Z,99979.86
2018-12-08T10:46:01.962Z,99975.00
2018-12-08T10:48:39.754Z,99978.13
2018-12-08T10:51:13.896Z,99966.26
2018-12-08T10:53:41.013Z,99960.31
2018-12-08T10:56:13.040Z,99957.38
2018-12-08T10:58:42.735Z,99942.38
2018-12-08T11:01:24.960Z,99942.38
2018-12-08T11:03:54.704Z,99942.92
2018-12-08T11:06:25.132Z,99957.68
2018-12-08T11:08:56.267Z,99930.76
2018-12-08T11:11:26.691Z,99945.43
2018-12-08T11:14:02.725Z,99943.31
2018-12-08T11:16:30.581Z,99942.89
2018-12-08T11:18:59.782Z,99941.79
2018-12-08T11:21:31.310Z,99941.91
2018-12-08T11:24:01.621Z,99923.39
2018-12-08T11:26:32.064Z,99931.51
2018-12-08T11:29:02.807Z,99922.37
2018-12-08T11:31:33.126Z,99922.37
2018-12-08T11:34:03.653Z,99931.51
2018-12-08T11:36:33.720Z,99922.54
2018-12-08T11:39:03.949Z,99934.91
2018-12-08T11:41:33.769Z,99963.61
2018-12-08T11:44:03.735Z,99929.88
2018-12-08T11:46:33.579Z,99953.76
2018-12-08T11:49:03.437Z,99933.83
2018-12-08T11:51:33.642Z,99940.80
2018-12-08T11:54:03.425Z,99947.13
2018-12-08T11:56:33.866Z,99939.91
2018-12-08T11:59:04.092Z,99947.69
2018-12-08T12:01:34.121Z,99932.73
2018-12-08T12:04:04.602Z,99916.98
2018-12-08T12:06:34.322Z,99927.08
2018-12-08T12:09:04.962Z,99919.83
2018-12-08T12:11:35.209Z,99930.19
2018-12-08T12:14:05.469Z,99923.73
2018-12-08T12:16:35.960Z,99925.09
2018-12-08T12:19:06.557Z,99923.78
2018-12-08T12:21:36.274Z,99922.63
2018-12-08T12:24:06.585Z,99940.26
2018-12-08T12:26:39.823Z,99919.27
2018-12-08T12:29:09.709Z,99912.55
2018-12-08T12:31:40.305Z,99927.86
2018-12-08T12:34:10.335Z,99926.62
2018-12-08T12:36:40.592Z,99937.70
2018-12-08T12:39:10.583Z,99937.23
2018-12-08T12:41:40.958Z,99925.77
2018-12-08T12:44:11.172Z,99922.75
2018-12-08T12:46:41.874Z,99910.71
2018-12-08T12:49:11.784Z,99917.89
2018-12-08T12:51:41.604Z,99911.17
2018-12-08T12:54:12.132Z,99910.91
2018-12-08T12:56:42.442Z,99912.63
2018-12-08T12:59:12.043Z,99912.20
2018-12-08T13:01:42.990Z,99916.55
2018-12-08T13:04:13.320Z,99903.09
2018-12-08T13:06:43.746Z,99908.09
2018-12-08T13:09:13.567Z,99902.30
2018-12-08T13:11:44.766Z,99898.21
2018-12-08T13:14:14.270Z,99929.40
2018-12-08T13:16:44.520Z,99897.55
2018-12-08T13:19:14.515Z,99908.95
2018-12-08T13:21:44.215Z,99898.78
2018-12-08T13:24:14.581Z,99900.70
2018-12-08T13:26:45.061Z,99944.30
2018-12-08T13:29:14.545Z,99902.97
2018-12-08T13:31:45.730Z,99909.70
2018-12-08T13:34:29.977Z,99898.58
2018-12-08T13:37:00.645Z,99874.91
2018-12-08T13:39:31.029Z,99889.08
2018-12-08T13:42:04.755Z,99894.78
2018-12-08T13:44:42.135Z,99904.02
2018-12-08T13:47:12.797Z,99888.13
2018-12-08T13:49:42.907Z,99911.61
2018-12-08T13:52:14.209Z,99903.46
2018-12-08T13:54:51.725Z,99911.52
2018-12-08T13:57:21.561Z,99905.50
2018-12-08T13:59:58.050Z,99921.02
2018-12-08T14:02:29.567Z,99183.05
2018-12-08T14:04:59.822Z,99901.69
2018-12-08T14:07:30.219Z,99907.15
2018-12-08T14:10:00.580Z,99906.82
2018-12-08T14:12:31.784Z,99899.09
2018-12-08T14:15:03.768Z,99904.22
2018-12-08T14:17:31.943Z,99904.40
2018-12-08T14:20:33.037Z,99892.94
2018-12-08T14:23:04.015Z,99892.94
2018-12-08T14:25:34.638Z,99897.74
2018-12-08T14:28:05.365Z,99908.45
2018-12-08T14:30:35.291Z,99931.13
2018-12-08T14:33:06.398Z,99898.73
2018-12-08T14:35:36.649Z,99921.27
2018-12-08T14:38:07.225Z,99921.27
2018-12-08T14:40:37.736Z,99912.14
2018-12-08T14:43:10.957Z,99912.14
2018-12-08T14:45:41.900Z,99905.81
2018-12-08T14:48:12.285Z,99910.06
2018-12-08T14:50:41.933Z,99926.61
2018-12-08T14:53:12.463Z,99912.41
2018-12-08T14:55:43.061Z,99906.33
2018-12-08T14:58:12.867Z,99929.44
2018-12-08T15:00:43.542Z,99900.59
2018-12-08T15:03:14.067Z,99915.11
2018-12-08T15:05:45.206Z,99909.64
2018-12-08T15:08:16.559Z,99906.36
2018-12-08T15:10:46.575Z,99910.22
2018-12-08T15:13:16.642Z,99951.33
2018-12-08T15:15:46.419Z,99933.52
2018-12-08T15:18:21.228Z,99913.86
2018-12-08T15:20:53.666Z,99902.92
2018-12-08T15:23:24.320Z,99916.84
2018-12-08T15:25:54.303Z,99916.27
2018-12-08T15:28:24.260Z,99918.10
2018-12-08T15:30:56.758Z,99922.01
2018-12-08T15:33:26.576Z,99929.20
2018-12-08T15:35:56.481Z,99912.17
2018-12-08T15:38:31.472Z,99894.72
2018-12-08T15:41:01.478Z,99910.66
2018-12-08T15:43:31.187Z,99903.30
2018-12-08T15:46:01.034Z,99912.39
2018-12-08T15:48:30.778Z,99903.30
2018-12-08T15:51:00.995Z,99919.13
2018-12-08T15:53:31.266Z,99914.61
2018-12-08T15:56:01.102Z,99920.30
2018-12-08T15:58:31.205Z,99916.87
2018-12-08T16:01:01.068Z,99908.54
2018-12-08T16:03:31.064Z,99918.84
2018-12-08T16:06:01.166Z,99903.07
2018-12-08T16:08:30.910Z,99917.77
2018-12-08T16:11:00.940Z,99931.48
2018-12-08T16:13:30.777Z,99931.48
2018-12-08T16:16:00.737Z,99920.92
2018-12-08T16:18:33.207Z,99905.38
2018-12-08T16:21:04.890Z,99924.83
2018-12-08T16:23:34.979Z,99941.38
2018-12-08T16:26:07.479Z,99956.83
2018-12-08T16:28:38.518Z,99930.02
2018-12-08T16:31:11.387Z,99941.38
2018-12-08T16:33:41.452Z,99945.75
2018-12-08T16:36:12.974Z,99935.61
2018-12-08T16:38:43.218Z,99937.91
2018-12-08T16:41:16.150Z,99928.20
2018-12-08T16:43:43.572Z,99919.23
2018-12-08T16:46:13.370Z,99897.11
2018-12-08T16:48:47.349Z,99903.42
2018-12-08T16:51:14.149Z,99924.37
2018-12-08T16:53:45.593Z,99901.06
2018-12-08T16:56:16.484Z,99901.91
2018-12-08T16:58:47.315Z,99896.17
2018-12-08T17:01:18.809Z,99894.05
2018-12-08T17:03:49.137Z,99905.65
2018-12-08T17:06:20.475Z,99910.41
2018-12-08T17:08:51.859Z,99904.48
2018-12-08T17:11:22.467Z,99907.77
2018-12-08T17:13:52.840Z,99893.27
2018-12-08T17:16:23.062Z,99893.08
2018-12-08T17:18:53.290Z,99897.14
2018-12-08T17:21:23.285Z,99903.53
2018-12-08T17:23:53.709Z,99884.83
2018-12-08T17:26:23.475Z,99910.98
2018-12-08T17:28:56.100Z,99898.68
2018-12-08T17:31:27.066Z,99893.98
2018-12-08T17:33:57.384Z,99904.67
2018-12-08T17:36:27.870Z,99923.92
2018-12-08T17:38:58.162Z,99895.44
2018-12-08T17:41:29.206Z,99884.64
2018-12-08T17:43:59.406Z,99903.16
2018-12-08T17:46:32.582Z,99886.67
2018-12-08T17:49:03.108Z,99882.34
2018-12-08T17:51:33.583Z,99877.11
2018-12-08T17:54:04.308Z,99868.81
2018-12-08T17:56:34.520Z,99884.09
2018-12-08T17:59:04.350Z,99853.37
2018-12-08T18:01:34.494Z,99872.08
2018-12-08T18:04:05.792Z,99865.19
2018-12-08T18:06:36.250Z,99860.44
2018-12-08T18:09:07.682Z,99852.52
2018-12-08T18:11:38.593Z,99858.70
2018-12-08T18:14:09.252Z,99834.26
2018-12-08T18:16:39.127Z,99834.26
2018-12-08T18:19:11.639Z,99820.69
2018-12-08T18:21:39.493Z,99827.61
2018-12-08T18:24:10.187Z,99818.06
2018-12-08T18:26:40.120Z,99819.47
2018-12-08T18:29:10.119Z,99811.55
2018-12-08T18:31:40.217Z,99805.34
2018-12-08T18:34:10.209Z,99783.59
2018-12-08T18:36:39.824Z,99789.39
2018-12-08T18:39:09.944Z,99764.10
2018-12-08T18:41:39.688Z,99773.94
2018-12-08T18:44:09.367Z,99759.55
2018-12-08T18:46:40.029Z,99757.37
2018-12-08T18:49:10.247Z,99750.59
2018-12-08T18:51:41.063Z,99748.43
2018-12-08T18:54:11.952Z,99732.99
2018-12-08T18:56:41.567Z,99751.95
2018-12-08T18:59:11.237Z,99728.75
2018-12-08T19:01:40.776Z,99726.59
2018-12-08T19:04:11.265Z,99728.36
2018-12-08T19:06:41.610Z,99728.36
2018-12-08T19:09:11.757Z,99711.45
2018-12-08T19:11:42.324Z,99721.27
2018-12-08T19:14:12.138Z,99711.75
2018-12-08T19:16:43.399Z,99718.72
2018-12-08T19:19:13.930Z,99729.72
2018-12-08T19:21:43.972Z,99724.82
2018-12-08T19:24:14.072Z,99712.16
2018-12-08T19:26:45.260Z,99707.03
2018-12-08T19:29:16.137Z,99698.30
2018-12-08T19:31:46.592Z,99703.42
2018-12-08T19:34:16.534Z,99690.64
2018-12-08T19:36:46.102Z,99681.41
2018-12-08T19:39:16.554Z,99681.41
2018-12-08T19:41:47.879Z,99675.19
2018-12-08T19:44:21.120Z,99675.19
2018-12-08T19:46:51.019Z,99672.66
2018-12-08T19:49:21.860Z,99655.78
2018-12-08T19:51:51.506Z,99656.78
2018-12-08T19:54:22.212Z,99653.70
2018-12-08T19:56:51.893Z,99646.55
2018-12-08T19:59:22.322Z,99624.22
2018-12-08T20:01:53.455Z,99625.61
2018-12-08T20:04:23.316Z,99629.13
2018-12-08T20:06:53.414Z,99617.00
2018-12-08T20:09:24.533Z,99605.06
2018-12-08T20:11:54.974Z,99590.77
2018-12-08T20:14:25.830Z,99581.95
2018-12-08T20:16:55.714Z,99569.81
2018-12-08T20:19:25.788Z,99549.42
2018-12-08T20:22:00.268Z,99549.42
2018-12-08T20:24:31.378Z,99544.44
2018-12-08T20:27:02.614Z,99548.71
2018-12-08T20:29:33.332Z,99537.22
2018-12-08T20:32:05.937Z,99536.75
2018-12-08T20:34:37.302Z,99527.23
2018-12-08T20:37:07.739Z,99526.67
2018-12-08T20:39:37.514Z,99518.60
2018-12-08T20:42:07.675Z,99519.54
2018-12-08T20:44:38.468Z,99515.01
2018-12-08T20:47:11.266Z,99503.66
2018-12-08T20:49:41.744Z,99493.27
2018-12-08T20:52:11.387Z,99477.97
2018-12-08T20:54:41.525Z,99463.14
2018-12-08T20:57:11.973Z,99463.03
2018-12-08T20:59:42.982Z,99448.90
2018-12-08T21:02:12.888Z,99430.45
2018-12-08T21:04:42.499Z,99411.38
2018-12-08T21:07:12.510Z,99422.37
2018-12-08T21:09:42.682Z,99418.95
2018-12-08T21:12:12.740Z,99414.63
2018-12-08T21:14:42.538Z,99418.52
2018-12-08T21:17:12.576Z,99400.98
2018-12-08T21:19:42.012Z,99389.14
2018-12-08T21:22:11.774Z,99382.50
2018-12-08T21:24:41.368Z,99369.80
2018-12-08T21:27:11.290Z,99361.12
2018-12-08T21:29:41.198Z,99341.38
2018-12-08T21:32:11.133Z,99329.05
2018-12-08T21:34:40.953Z,99346.32
2018-12-08T21:37:12.112Z,99319.46
2018-12-08T21:39:41.882Z,99309.99
2018-12-08T21:42:11.887Z,99304.13
2018-12-08T21:44:42.846Z,99293.19
2018-12-08T21:47:12.488Z,99274.92
2018-12-08T21:49:42.309Z,99274.92
2018-12-08T21:52:12.573Z,99258.59
2018-12-08T21:54:42.901Z,99246.49
2018-12-08T21:57:12.922Z,99252.63
2018-12-08T21:59:42.664Z,99236.84
2018-12-08T22:02:12.162Z,99231.16
2018-12-08T22:04:41.912Z,99218.47
2018-12-08T22:07:12.808Z,99201.30
2018-12-08T22:09:43.024Z,99214.89
2018-12-08T22:12:12.925Z,99205.55
2018-12-08T22:15:01.375Z,99194.23
2018-12-08T22:17:31.457Z,99180.06
2018-12-08T22:20:04.622Z,99185.23
2018-12-08T22:22:34.612Z,99170.22
2018-12-08T22:25:04.818Z,99172.79
2018-12-08T22:27:34.488Z,99158.14
2018-12-08T22:30:04.861Z,99145.59
2018-12-08T22:32:34.506Z,99137.42
2018-12-08T22:35:07.474Z,99139.05
2018-12-08T22:37:37.441Z,99141.08
2018-12-08T22:40:08.419Z,99146.25
2018-12-08T22:42:40.621Z,99127.88
2018-12-08T22:45:08.474Z,99117.17
2018-12-08T22:47:38.881Z,99112.11
2018-12-08T22:50:09.293Z,99116.36
2018-12-08T22:52:39.375Z,99112.67
2018-12-08T22:55:11.761Z,99090.98
2018-12-08T22:57:41.507Z,99078.95
2018-12-08T23:00:48.201Z,99064.00
2018-12-08T23:03:18.419Z,99071.61
2018-12-08T23:05:48.165Z,99079.37
2018-12-08T23:08:17.785Z,99048.64
2018-12-08T23:10:47.653Z,99064.75
2018-12-08T23:13:17.266Z,99062.91
2018-12-08T23:15:47.166Z,99062.91
2018-12-08T23:18:17.101Z,99050.50
2018-12-08T23:20:47.258Z,99059.12
2018-12-08T23:23:20.053Z,99048.41
2018-12-08T23:25:50.579Z,99055.05
2018-12-08T23:28:20.274Z,99045.86
2018-12-08T23:30:53.661Z,99012.78
2018-12-08T23:33:23.578Z,99010.40
2018-12-08T23:35:53.318Z,99028.53
2018-12-08T23:38:23.099Z,99018.93
2018-12-08T23:40:52.930Z,99014.72
2018-12-08T23:43:22.900Z,99005.92
2018-12-08T23:45:55.253Z,98988.27
2018-12-08T23:48:22.724Z,98988.27
2018-12-08T23:50:52.477Z,99024.28
2018-12-08T23:53:22.063Z,99008.53
2018-12-08T23:55:54.622Z,98992.23
2018-12-08T23:58:24.597Z,98984.28
